Time;durP1;ratioP1;P1;durP2;ratioP2;P2;SDS_P1;SDS_P2;PMS_P1;PMS_P2;Temp;Humidity;BMP_temperature;BMP_pressure;BME280_temperature;BME280_humidity;BME280_pressure;Samples;Min_cycle;Max_cycle;Signal;HPM_P1;HPM_P2
2021/08/12 00:00:31;;;;;;;13.32;9.90;;;;;;;22.41;71.48;97107.22;5002868;28;20472;-65
2021/08/12 00:02:58;;;;;;;13.70;10.23;;;;;;;22.08;71.48;97054.16;5003026;28;20108;-64
2021/08/12 00:05:25;;;;;;;11.25;10.05;;;;;;;22.26;72.54;97111.69;5003060;28;20586;-64
2021/08/12 00:07:52;;;;;;;13.50;10.52;;;;;;;22.13;72.50;97085.44;5004643;28;20054;-65
2021/08/12 00:10:19;;;;;;;11.32;10.18;;;;;;;22.10;72.92;97097.59;5004637;28;20054;-65
2021/08/12 00:12:46;;;;;;;12.43;9.93;;;;;;;21.86;74.13;97087.78;5004749;28;20064;-65
2021/08/12 00:15:13;;;;;;;13.85;9.55;;;;;;;21.99;73.89;97085.81;5004185;28;20144;-66
2021/08/12 00:17:40;;;;;;;12.50;10.52;;;;;;;21.80;74.18;97083.91;5003040;28;20443;-65
2021/08/12 00:20:07;;;;;;;11.75;10.55;;;;;;;22.06;74.25;97119.50;5002599;28;20713;-65
2021/08/12 00:22:34;;;;;;;12.02;10.57;;;;;;;21.69;75.00;97093.84;5004841;28;20421;-65
2021/08/12 00:25:01;;;;;;;10.52;9.52;;;;;;;21.77;74.46;97096.09;5003876;28;20049;-65
2021/08/12 00:27:28;;;;;;;11.23;9.77;;;;;;;22.12;74.49;97131.81;5003141;28;20052;-64
2021/08/12 00:29:55;;;;;;;11.73;10.38;;;;;;;21.72;74.31;97076.84;5004247;28;20058;-64
2021/08/12 00:32:21;;;;;;;11.18;10.18;;;;;;;21.67;74.46;97074.56;5002828;28;20061;-64
2021/08/12 00:34:48;;;;;;;13.57;10.65;;;;;;;21.86;75.38;97132.91;5002684;28;20062;-65
2021/08/12 00:37:15;;;;;;;11.75;10.52;;;;;;;21.91;75.25;97142.88;5004307;28;20062;-64
2021/08/12 00:39:42;;;;;;;14.68;10.05;;;;;;;21.95;74.54;97141.56;5002263;28;20120;-66
2021/08/12 00:42:09;;;;;;;11.80;10.70;;;;;;;21.93;74.54;97129.13;5002785;28;20495;-65
2021/08/12 00:44:37;;;;;;;12.23;10.93;;;;;;;21.84;74.80;97141.03;5003170;28;20524;-65
2021/08/12 00:47:04;;;;;;;12.43;10.93;;;;;;;21.68;75.12;97117.66;5002587;28;20517;-64
2021/08/12 00:49:31;;;;;;;17.52;11.23;;;;;;;21.36;76.21;97107.16;5003945;28;20065;-65
2021/08/12 00:51:58;;;;;;;15.55;11.27;;;;;;;21.44;76.14;97122.69;5004079;28;20057;-64
2021/08/12 00:54:25;;;;;;;14.75;10.70;;;;;;;21.19;76.15;97094.31;5003867;28;20064;-65
2021/08/12 00:56:51;;;;;;;11.57;10.45;;;;;;;21.47;76.01;97144.34;5002337;28;20057;-64
2021/08/12 00:59:18;;;;;;;12.88;10.85;;;;;;;21.46;75.60;97148.41;5003476;28;20054;-64
2021/08/12 01:01:45;;;;;;;13.43;10.65;;;;;;;21.41;75.92;97143.28;5002363;28;20062;-64
2021/08/12 01:04:12;;;;;;;13.05;11.15;;;;;;;21.12;75.95;97097.28;5002467;28;20054;-65
2021/08/12 01:06:52;;;;;;;14.27;10.68;;;;;;;21.40;75.89;97143.72;5002648;28;20104;-65
2021/08/12 01:09:32;;;;;;;13.63;10.73;;;;;;;21.52;75.41;97140.19;5002504;28;20929;-65
2021/08/12 01:12:08;;;;;;;13.10;10.68;;;;;;;21.49;75.54;97141.88;5002408;28;20046;-65
2021/08/12 01:14:44;;;;;;;12.02;10.73;;;;;;;21.31;75.13;97149.97;5002890;28;20050;-65
2021/08/12 01:17:17;;;;;;;12.00;10.80;;;;;;;21.59;74.77;97135.19;5006757;28;20563;-65
2021/08/12 01:20:05;;;;;;;13.70;10.18;;;;;;;21.67;74.61;97136.59;5007948;28;20147;-65
2021/08/12 01:22:38;;;;;;;11.50;10.32;;;;;;;21.56;75.08;97138.88;5008381;28;20168;-64
2021/08/12 01:25:13;;;;;;;12.43;10.48;;;;;;;20.96;76.58;97049.38;5006521;28;20050;-65
2021/08/12 01:27:46;;;;;;;11.68;10.40;;;;;;;21.44;77.54;97128.31;5006489;28;20058;-65
2021/08/12 01:30:20;;;;;;;14.77;11.45;;;;;;;21.19;77.87;97099.94;5006160;28;20057;-65
2021/08/12 01:33:21;;;;;;;11.60;10.32;;;;;;;21.57;76.94;97115.13;5008142;28;20067;-65
2021/08/12 01:35:49;;;;;;;12.23;10.43;;;;;;;21.04;77.42;97047.97;5007115;28;20061;-65
2021/08/12 01:38:21;;;;;;;12.00;10.82;;;;;;;21.23;77.33;97072.47;5005874;28;20386;-65
2021/08/12 01:40:51;;;;;;;13.02;10.88;;;;;;;21.26;76.97;97079.25;5005959;28;20054;-65
2021/08/12 01:43:20;;;;;;;11.23;9.77;;;;;;;21.25;76.74;97074.84;5006151;28;20611;-65
2021/08/12 01:45:53;;;;;;;12.98;10.73;;;;;;;21.51;76.61;97111.25;5007295;28;20540;-64
2021/08/12 01:48:24;;;;;;;12.30;10.38;;;;;;;21.51;76.36;97105.59;5007226;28;20168;-65
2021/08/12 01:50:52;;;;;;;12.13;10.88;;;;;;;20.79;76.18;97002.69;5005469;28;20281;-64
2021/08/12 01:53:20;;;;;;;12.85;10.35;;;;;;;21.53;75.87;97117.22;5005488;28;20054;-62
2021/08/12 01:55:48;;;;;;;13.27;11.35;;;;;;;21.56;75.28;97107.88;5005088;28;20046;-64
2021/08/12 01:58:17;;;;;;;13.90;11.02;;;;;;;21.47;75.58;97092.81;5006499;28;20141;-64
2021/08/12 02:00:47;;;;;;;11.80;10.57;;;;;;;21.36;75.99;97115.63;5006309;28;20064;-63
2021/08/12 02:03:16;;;;;;;11.82;10.68;;;;;;;21.22;76.42;97076.53;5006937;28;20084;-63
2021/08/12 02:05:45;;;;;;;13.55;11.02;;;;;;;21.41;77.04;97106.66;5005309;28;20057;-64
2021/08/12 02:08:11;;;;;;;13.50;10.38;;;;;;;21.53;76.55;97103.13;5005413;28;20096;-65
2021/08/12 02:10:39;;;;;;;15.57;11.48;;;;;;;21.45;76.37;97100.94;5006503;28;20053;-66
2021/08/12 02:13:08;;;;;;;12.70;10.95;;;;;;;21.10;76.49;97051.88;5005387;28;20588;-65
2021/08/12 02:15:35;;;;;;;12.30;10.98;;;;;;;20.96;76.50;97035.28;5004997;28;20144;-65
2021/08/12 02:18:03;;;;;;;12.55;10.70;;;;;;;21.31;77.13;97096.41;5005868;28;20058;-65
2021/08/12 02:20:30;;;;;;;19.48;11.25;;;;;;;21.10;77.76;97091.31;5006558;28;20058;-65
2021/08/12 02:23:03;;;;;;;12.57;11.27;;;;;;;21.11;78.33;97106.97;5005708;28;20065;-65
2021/08/12 02:25:37;;;;;;;11.87;10.67;;;;;;;21.14;78.42;97103.28;5006438;28;20512;-65
2021/08/12 02:28:08;;;;;;;12.80;10.93;;;;;;;20.45;77.99;96999.47;5005358;28;20058;-65
2021/08/12 02:30:41;;;;;;;12.13;10.25;;;;;;;21.07;77.87;97080.91;5006451;28;20061;-65
2021/08/12 02:33:12;;;;;;;12.65;11.38;;;;;;;20.87;77.63;97043.53;5006942;28;20436;-66
2021/08/12 02:35:39;;;;;;;13.05;11.05;;;;;;;21.12;78.47;97104.97;5004185;28;20438;-65
2021/08/12 02:38:12;;;;;;;12.45;10.55;;;;;;;21.16;78.14;97100.03;5006357;28;20136;-66
2021/08/12 02:40:40;;;;;;;12.80;11.15;;;;;;;21.10;78.48;97102.56;5004735;28;20053;-66
2021/08/12 02:43:08;;;;;;;11.38;10.27;;;;;;;21.11;78.25;97108.97;5005153;28;20056;-65
2021/08/12 02:45:37;;;;;;;12.48;11.18;;;;;;;20.92;79.38;97104.97;5004535;28;20054;-65
2021/08/12 02:48:08;;;;;;;14.77;11.15;;;;;;;20.92;79.13;97117.03;5004764;28;20057;-64
2021/08/12 02:50:42;;;;;;;12.40;10.25;;;;;;;20.78;79.83;97111.72;5004229;28;20174;-65
2021/08/12 02:53:09;;;;;;;;;;;;;;;20.79;79.90;97115.31;5005025;28;20045;-65
2021/08/12 02:55:37;;;;;;;31.20;11.38;;;;;;;20.04;80.05;97024.44;5005412;28;19936;-66
2021/08/12 02:58:04;;;;;;;13.32;10.90;;;;;;;20.40;80.94;97107.72;5004193;28;20572;-65
2021/08/12 03:00:32;;;;;;;13.65;10.98;;;;;;;20.64;80.83;97130.94;5004239;28;20065;-65
2021/08/12 03:02:59;;;;;;;11.27;10.18;;;;;;;20.59;80.55;97134.25;5004539;28;20541;-65
2021/08/12 03:05:27;;;;;;;12.80;11.02;;;;;;;20.55;80.63;97142.00;5005546;28;20142;-65
2021/08/12 03:07:55;;;;;;;13.85;10.20;;;;;;;19.98;80.37;97048.66;5005378;28;20056;-65
2021/08/12 03:10:22;;;;;;;13.50;11.18;;;;;;;20.23;80.56;97100.41;5003869;28;20065;-65
2021/08/12 03:12:49;;;;;;;18.38;11.07;;;;;;;20.47;80.41;97137.72;5004187;28;20534;-65
2021/08/12 03:15:18;;;;;;;12.73;10.77;;;;;;;20.53;79.88;97141.63;5004077;28;20177;-65
2021/08/12 03:17:46;;;;;;;13.32;11.23;;;;;;;20.25;79.56;97080.28;5003923;28;20141;-64
2021/08/12 03:20:13;;;;;;;16.77;11.15;;;;;;;19.81;79.37;97022.47;5004374;28;20053;-65
2021/08/12 03:22:41;;;;;;;12.10;10.20;;;;;;;20.50;80.06;97145.31;5003957;28;20060;-64
2021/08/12 03:25:09;;;;;;;13.10;10.68;;;;;;;20.51;80.04;97160.94;5003791;28;20512;-65
2021/08/12 03:27:36;;;;;;;12.48;10.98;;;;;;;20.49;80.18;97147.31;5003889;28;20046;-64
2021/08/12 03:30:03;;;;;;;15.70;10.73;;;;;;;20.51;79.84;97149.69;5003573;28;20132;-66
2021/08/12 03:32:30;;;;;;;19.00;11.60;;;;;;;20.01;79.75;97064.66;5003626;28;20071;-66
2021/08/12 03:34:57;;;;;;;17.88;11.07;;;;;;;20.11;80.06;97098.19;5005172;28;20057;-64
2021/08/12 03:37:24;;;;;;;16.23;11.23;;;;;;;20.64;78.88;97153.47;5003473;28;20060;-64
2021/08/12 03:39:50;;;;;;;16.77;10.98;;;;;;;19.10;78.48;96916.22;5005222;28;20378;-65
2021/08/12 03:42:17;;;;;;;13.38;10.93;;;;;;;20.68;78.39;97154.16;5005186;28;20057;-66
2021/08/12 03:44:44;;;;;;;14.90;11.25;;;;;;;20.68;78.30;97154.16;5003697;28;20143;-66
2021/08/12 03:47:11;;;;;;;14.20;10.45;;;;;;;20.72;77.65;97143.63;5003055;28;20046;-66
2021/08/12 03:49:38;;;;;;;14.52;11.70;;;;;;;20.82;77.58;97157.47;5003157;28;20543;-66
2021/08/12 03:52:05;;;;;;;16.83;11.13;;;;;;;20.82;77.78;97165.13;5003234;28;20541;-64
2021/08/12 03:54:35;;;;;;;24.35;10.55;;;;;;;20.94;76.84;97161.66;5003347;28;20069;-63
2021/08/12 03:57:06;;;;;;;24.38;11.88;;;;;;;20.81;77.18;97155.91;5005072;28;20057;-65
2021/08/12 03:59:33;;;;;;;24.00;11.07;;;;;;;20.87;77.22;97167.44;5004326;28;20430;-65
2021/08/12 04:02:00;;;;;;;25.50;10.88;;;;;;;20.96;76.38;97164.84;5004602;28;20065;-65
2021/08/12 04:04:27;;;;;;;13.88;11.32;;;;;;;20.80;76.36;97150.72;5004428;28;20061;-64
2021/08/12 04:06:54;;;;;;;16.45;10.55;;;;;;;20.65;75.79;97104.34;5004072;28;20491;-66
2021/08/12 04:09:21;;;;;;;14.45;9.70;;;;;;;21.14;75.64;97164.44;5004029;28;20460;-65
2021/08/12 04:11:47;;;;;;;12.75;10.20;;;;;;;20.97;74.90;97115.75;5003858;28;20593;-66
2021/08/12 04:14:14;;;;;;;15.50;10.27;;;;;;;21.35;74.83;97170.41;5002173;28;20600;-64
2021/08/12 04:16:41;;;;;;;19.25;9.50;;;;;;;20.87;74.33;97111.09;5002889;28;20061;-66
2021/08/12 04:19:09;;;;;;;21.50;10.35;;;;;;;21.45;74.09;97174.22;5004769;28;20917;-66
2021/08/12 04:21:36;;;;;;;26.02;10.15;;;;;;;21.60;73.30;97170.63;5004021;28;20539;-66
2021/08/12 04:24:02;;;;;;;14.05;9.98;;;;;;;21.35;72.70;97153.50;5002592;28;20054;-66
2021/08/12 04:26:29;;;;;;;16.70;9.75;;;;;;;21.68;72.30;97172.03;5003812;28;20061;-66
2021/08/12 04:28:57;;;;;;;13.63;9.05;;;;;;;21.81;71.34;97181.41;5004200;28;20050;-65
2021/08/12 04:31:23;;;;;;;12.52;9.35;;;;;;;21.24;71.09;97088.16;5003812;28;20056;-66
2021/08/12 04:33:50;;;;;;;12.52;9.00;;;;;;;21.70;71.71;97180.06;5002953;28;20060;-65
2021/08/12 04:36:17;;;;;;;12.60;9.35;;;;;;;21.57;71.08;97143.31;5002438;28;20061;-66
2021/08/12 04:38:44;;;;;;;11.55;8.50;;;;;;;21.90;70.56;97183.59;5002806;28;20064;-67
2021/08/12 04:41:11;;;;;;;10.48;8.60;;;;;;;21.98;70.24;97185.81;5003606;28;20062;-66
2021/08/12 04:43:38;;;;;;;12.95;9.25;;;;;;;22.12;69.67;97185.44;5004079;28;20058;-66
2021/08/12 04:46:05;;;;;;;13.13;8.95;;;;;;;22.26;69.10;97189.91;5005349;28;20141;-64
2021/08/12 04:48:32;;;;;;;11.02;8.75;;;;;;;22.28;68.80;97191.06;5003135;28;20060;-65
2021/08/12 04:50:58;;;;;;;10.40;7.97;;;;;;;22.41;68.20;97174.97;5003657;28;20054;-66
2021/08/12 04:53:25;;;;;;;12.30;9.50;;;;;;;22.74;67.83;97191.84;5003840;28;20535;-65
2021/08/12 04:55:52;;;;;;;14.55;9.77;;;;;;;22.90;67.05;97203.88;5004069;28;20058;-65
2021/08/12 04:58:19;;;;;;;13.25;8.45;;;;;;;22.99;67.32;97201.19;5002354;28;20531;-66
2021/08/12 05:00:45;;;;;;;11.98;9.50;;;;;;;22.94;66.96;97184.78;5003126;28;20057;-65
2021/08/12 05:03:13;;;;;;;14.90;8.63;;;;;;;23.26;65.86;97198.00;5002921;28;20058;-65
2021/08/12 05:05:41;;;;;;;12.63;9.57;;;;;;;23.39;65.71;97207.28;5001933;28;20057;-65
2021/08/12 05:08:07;;;;;;;10.77;8.60;;;;;;;23.55;65.26;97210.03;5003679;28;20061;-66
2021/08/12 05:10:34;;;;;;;12.95;9.70;;;;;;;23.54;65.37;97206.41;5003187;28;20444;-66
2021/08/12 05:13:01;;;;;;;12.23;9.38;;;;;;;23.69;64.92;97198.25;5003302;28;20127;-66
2021/08/12 05:15:29;;;;;;;11.32;8.95;;;;;;;23.03;64.38;97073.94;5001688;28;20104;-66
2021/08/12 05:17:56;;;;;;;14.20;9.40;;;;;;;23.77;62.27;97162.84;5003551;28;20053;-66
2021/08/12 05:20:23;;;;;;;14.98;8.80;;;;;;;24.24;61.99;97202.50;5001531;28;20144;-67
2021/08/12 05:22:50;;;;;;;11.93;9.18;;;;;;;24.21;60.79;97169.44;5001445;28;20108;-64
2021/08/12 05:25:17;;;;;;;15.25;8.65;;;;;;;24.61;60.34;97204.44;5001922;28;20192;-66
2021/08/12 05:27:44;;;;;;;13.15;8.18;;;;;;;24.79;60.12;97208.25;5003416;28;20046;-67
2021/08/12 05:30:11;;;;;;;15.77;9.15;;;;;;;24.95;59.03;97205.22;5003648;28;20080;-67
2021/08/12 05:32:38;;;;;;;12.63;8.45;;;;;;;25.18;57.72;97204.75;5003527;28;20218;-65
2021/08/12 05:35:05;;;;;;;16.00;9.05;;;;;;;25.03;57.17;97169.69;5002895;28;20057;-66
2021/08/12 05:37:32;;;;;;;19.75;8.80;;;;;;;25.20;56.83;97161.75;5002985;28;20440;-67
2021/08/12 05:39:58;;;;;;;13.65;8.68;;;;;;;25.11;57.39;97161.69;5001816;28;20124;-66
2021/08/12 05:42:25;;;;;;;17.50;8.80;;;;;;;25.54;56.67;97200.56;5003272;28;20082;-66
2021/08/12 05:44:52;;;;;;;24.60;9.68;;;;;;;25.80;56.30;97211.25;5001744;28;21383;-66
2021/08/12 05:47:19;;;;;;;16.92;9.73;;;;;;;25.88;56.04;97200.38;5003346;28;20053;-67
2021/08/12 05:49:45;;;;;;;25.02;9.50;;;;;;;26.03;54.66;97207.91;5003636;28;20061;-65
2021/08/12 05:52:12;;;;;;;18.77;9.48;;;;;;;26.13;54.67;97217.25;5001541;28;20160;-67
2021/08/12 05:54:39;;;;;;;21.65;9.27;;;;;;;25.03;55.31;97067.63;4997535;28;20046;-67
2021/08/12 05:57:06;;;;;;;14.82;9.75;;;;;;;26.31;55.16;97212.41;4986493;28;20056;-65
2021/08/12 05:59:32;;;;;;;15.77;9.55;;;;;;;25.30;55.93;97075.47;4995993;28;20049;-64
2021/08/12 06:01:59;;;;;;;12.10;9.68;;;;;;;26.39;54.84;97224.25;5000974;28;20072;-62
2021/08/12 06:04:26;;;;;;;10.27;8.48;;;;;;;26.25;55.19;97205.75;4995853;28;20057;-68
2021/08/12 06:06:55;;;;;;;10.93;9.82;;;;;;;25.72;57.03;97180.81;5002835;28;20547;-64
2021/08/12 06:09:22;;;;;;;33.80;11.45;;;;;;;26.38;56.38;97205.63;5008383;28;20129;-66
2021/08/12 06:11:49;;;;;;;22.75;10.20;;;;;;;26.65;55.61;97208.53;5000229;28;20046;-65
2021/08/12 06:14:15;;;;;;;13.38;10.05;;;;;;;26.49;54.70;97177.53;4992976;28;20528;-63
2021/08/12 06:16:42;;;;;;;21.15;10.77;;;;;;;26.77;54.69;97198.25;4990605;28;20134;-63
2021/08/12 06:19:09;;;;;;;13.85;9.50;;;;;;;27.06;52.90;97199.38;4985372;28;20054;-62
2021/08/12 06:21:36;;;;;;;25.10;9.57;;;;;;;27.19;52.35;97191.41;4986196;28;20062;-66
2021/08/12 06:24:03;;;;;;;14.00;9.05;;;;;;;27.52;50.24;97198.00;4994148;28;20056;-65
2021/08/12 06:26:31;;;;;;;11.88;9.02;;;;;;;27.71;49.95;97198.75;4996137;28;20050;-62
2021/08/12 06:28:57;;;;;;;14.55;9.77;;;;;;;27.84;49.68;97205.00;4983822;28;20568;-66
2021/08/12 06:31:24;;;;;;;9.75;8.77;;;;;;;26.93;49.68;97059.41;4993171;28;20054;-69
2021/08/12 06:33:51;;;;;;;11.57;8.85;;;;;;;27.94;49.19;97173.22;5013600;28;20543;-64
2021/08/12 06:36:17;;;;;;;10.95;8.02;;;;;;;27.62;48.86;97082.84;4996121;28;20532;-67
2021/08/12 06:38:44;;;;;;;10.10;8.73;;;;;;;27.47;48.56;97099.06;4996301;28;20050;-66
2021/08/12 06:41:11;;;;;;;9.38;7.78;;;;;;;27.92;47.10;97167.19;4988665;28;20156;-64
2021/08/12 06:43:37;;;;;;;11.23;8.15;;;;;;;28.24;45.62;97164.81;4989958;28;20057;-63
2021/08/12 06:46:04;;;;;;;9.93;8.25;;;;;;;28.63;45.24;97166.47;4985129;28;20058;-65
2021/08/12 06:48:31;;;;;;;11.68;7.90;;;;;;;28.50;44.26;97126.03;4987677;28;20541;-68
2021/08/12 06:50:58;;;;;;;12.30;9.30;;;;;;;28.92;44.52;97160.81;4990419;28;20053;-67
2021/08/12 06:53:25;;;;;;;10.70;7.72;;;;;;;29.10;44.32;97194.94;4992647;28;20049;-62
2021/08/12 06:55:51;;;;;;;8.68;7.80;;;;;;;28.86;43.96;97131.41;4983265;28;20133;-62
2021/08/12 06:58:19;;;;;;;8.73;7.82;;;;;;;29.03;43.55;97192.41;4983390;28;20080;-61
2021/08/12 07:00:46;;;;;;;9.38;7.93;;;;;;;29.09;42.49;97202.69;4982778;28;20058;-62
2021/08/12 07:03:13;;;;;;;8.50;7.50;;;;;;;29.38;41.88;97196.22;4983264;28;20050;-62
2021/08/12 07:05:40;;;;;;;9.27;7.35;;;;;;;29.54;41.72;97215.72;4985357;28;20949;-62
2021/08/12 07:08:08;;;;;;;11.35;8.27;;;;;;;28.35;41.63;96951.28;4984681;28;20050;-67
2021/08/12 07:10:35;;;;;;;9.70;7.60;;;;;;;29.87;41.46;97182.03;4984960;28;20529;-67
2021/08/12 07:13:02;;;;;;;8.50;7.70;;;;;;;30.07;40.13;97164.16;4983034;28;20061;-67
2021/08/12 07:15:29;;;;;;;10.65;7.20;;;;;;;30.41;38.68;97183.41;4985532;28;20057;-67
2021/08/12 07:17:56;;;;;;;9.13;8.00;;;;;;;30.58;37.98;97182.34;4984103;28;20058;-67
2021/08/12 07:20:23;;;;;;;8.05;7.25;;;;;;;30.14;37.58;97106.59;4983817;28;20058;-61
2021/08/12 07:22:49;;;;;;;9.77;7.75;;;;;;;30.27;37.42;97109.91;4985821;28;20060;-62
2021/08/12 07:25:16;;;;;;;11.15;10.15;;;;;;;30.81;37.45;97189.94;4639429;28;10000673;-63
2021/08/12 07:27:48;;;;;;;28.10;25.15;;;;;;;30.83;37.32;97164.47;4985572;28;20054;-62
2021/08/12 07:30:16;;;;;;;7.93;7.13;;;;;;;31.22;37.08;97179.19;4984849;28;20149;-63
2021/08/12 07:32:43;;;;;;;8.00;7.20;;;;;;;31.33;36.15;97187.16;4985714;28;20072;-62
2021/08/12 07:35:11;;;;;;;7.40;6.75;;;;;;;31.41;35.79;97194.03;4985048;28;20535;-62
2021/08/12 07:37:41;;;;;;;7.80;7.00;;;;;;;30.22;36.46;97090.63;4984960;28;20062;-62
2021/08/12 07:40:08;;;;;;;8.38;7.55;;;;;;;30.35;36.80;97108.97;4985076;28;20062;-61
2021/08/12 07:42:35;;;;;;;12.82;7.63;;;;;;;30.63;37.28;97190.22;4985503;28;20057;-62
2021/08/12 07:45:03;;;;;;;13.15;7.35;;;;;;;31.16;35.95;97197.63;4983622;28;20178;-62
2021/08/12 07:47:32;;;;;;;8.80;7.85;;;;;;;31.24;35.98;97198.72;4985408;28;20092;-64
2021/08/12 07:49:59;;;;;;;8.68;7.45;;;;;;;31.05;35.43;97197.50;4994325;28;20046;-63
2021/08/12 07:52:26;;;;;;;10.60;7.50;;;;;;;30.94;36.25;97190.34;5003535;28;20137;-64
2021/08/12 07:54:53;;;;;;;7.65;6.82;;;;;;;30.37;35.42;97068.44;5002850;28;20056;-63
2021/08/12 07:57:20;;;;;;;7.97;6.97;;;;;;;30.92;35.58;97126.31;5002696;28;20065;-62
2021/08/12 07:59:46;;;;;;;10.07;6.82;;;;;;;28.57;35.69;96844.19;5002377;28;20435;-63
2021/08/12 08:02:15;;;;;;;8.50;7.15;;;;;;;31.15;35.17;97196.03;4984519;28;20058;-63
2021/08/12 08:04:43;;;;;;;9.13;7.35;;;;;;;31.23;34.55;97180.78;4984486;28;20061;-64
2021/08/12 08:07:10;;;;;;;8.80;7.43;;;;;;;31.03;34.89;97148.56;4984924;28;20046;-63
2021/08/12 08:09:37;;;;;;;13.80;7.97;;;;;;;31.54;34.61;97165.75;4984455;28;20321;-62
2021/08/12 08:12:04;;;;;;;7.57;6.97;;;;;;;31.81;33.73;97196.72;4984581;28;20185;-63
2021/08/12 08:14:31;;;;;;;8.63;6.80;;;;;;;32.10;33.42;97191.53;4984493;28;20046;-63
2021/08/12 08:16:58;;;;;;;12.50;9.10;;;;;;;31.75;33.84;97187.28;4983962;28;20060;-61
2021/08/12 08:19:24;;;;;;;13.77;8.02;;;;;;;32.10;33.87;97176.41;4984200;28;20156;-61
2021/08/12 08:21:51;;;;;;;11.23;8.63;;;;;;;32.16;32.95;97125.59;4984110;28;20054;-64
2021/08/12 08:24:18;;;;;;;10.32;8.43;;;;;;;32.88;31.78;97249.41;4982343;28;20062;-61
2021/08/12 08:26:45;;;;;;;8.63;7.18;;;;;;;32.82;32.49;97183.34;4984248;28;20153;-62
2021/08/12 08:29:11;;;;;;;7.40;6.68;;;;;;;32.78;32.30;97151.25;4982494;28;20715;-62
2021/08/12 08:31:39;;;;;;;12.20;11.00;;;;;;;33.03;31.70;97152.38;4983964;28;20062;-61
2021/08/12 08:34:06;;;;;;;11.52;10.43;;;;;;;33.50;31.13;97180.97;4984217;28;20050;-61
2021/08/12 08:36:33;;;;;;;10.30;9.40;;;;;;;32.99;30.70;97146.88;4983089;28;20058;-63
2021/08/12 08:39:00;;;;;;;12.70;9.80;;;;;;;33.01;31.45;97183.69;4982699;28;20141;-63
2021/08/12 08:41:27;;;;;;;11.07;10.07;;;;;;;33.39;30.93;97180.97;4984041;28;20062;-62
2021/08/12 08:43:54;;;;;;;11.48;10.50;;;;;;;33.56;30.17;97160.88;4982566;28;20046;-64
2021/08/12 08:46:22;;;;;;;10.95;9.98;;;;;;;32.32;30.65;97104.84;4984001;28;20058;-60
2021/08/12 08:48:55;;;;;;;10.10;9.30;;;;;;;32.75;29.98;97071.91;4984543;28;20402;-61
2021/08/12 08:51:22;;;;;;;10.15;9.32;;;;;;;33.63;29.49;97184.13;5003305;28;20477;-62
2021/08/12 08:53:50;;;;;;;10.10;9.40;;;;;;;33.10;29.54;97172.75;5003480;28;20046;-63
2021/08/12 08:56:19;;;;;;;11.55;10.55;;;;;;;33.23;29.17;97178.81;5003415;28;20068;-61
2021/08/12 08:58:46;;;;;;;14.35;12.95;;;;;;;33.14;28.59;97107.25;5003724;28;20058;-62
2021/08/12 09:01:13;;;;;;;10.88;10.07;;;;;;;33.91;28.99;97169.03;5002823;28;20054;-61
2021/08/12 09:03:40;;;;;;;9.65;8.75;;;;;;;33.46;28.49;97117.25;5001898;28;20132;-61
2021/08/12 09:06:07;;;;;;;9.73;8.82;;;;;;;34.23;29.02;97181.78;5002586;28;20050;-61
2021/08/12 09:08:34;;;;;;;11.18;10.10;;;;;;;34.52;28.09;97170.53;5003699;28;20061;-62
2021/08/12 09:11:01;;;;;;;10.85;10.05;;;;;;;34.36;27.89;97112.97;5001556;28;20080;-62
2021/08/12 09:13:29;;;;;;;10.68;9.88;;;;;;;34.62;27.68;97142.22;5003715;28;20054;-62
2021/08/12 09:15:56;;;;;;;11.20;9.93;;;;;;;34.79;26.94;97134.31;5003094;28;20046;-63
2021/08/12 09:18:26;;;;;;;11.25;10.35;;;;;;;34.17;28.35;97169.50;5003428;28;20061;-62
2021/08/12 09:20:56;;;;;;;10.18;9.23;;;;;;;33.44;27.75;97099.75;5001446;28;20131;-62
2021/08/12 09:23:29;;;;;;;10.43;9.70;;;;;;;34.24;27.46;97166.13;5003253;28;20509;-61
2021/08/12 09:25:57;;;;;;;9.70;8.90;;;;;;;34.41;27.72;97155.38;5001330;28;20088;-65
2021/08/12 09:28:31;;;;;;;9.77;9.18;;;;;;;34.30;27.47;97149.63;5003375;28;20054;-62
2021/08/12 09:31:00;;;;;;;14.35;12.27;;;;;;;34.84;27.42;97173.81;5002876;28;20050;-62
2021/08/12 09:33:29;;;;;;;9.40;8.60;;;;;;;34.76;26.34;97164.16;5003008;28;20054;-63
2021/08/12 09:35:57;;;;;;;9.60;8.90;;;;;;;34.59;26.12;97131.75;5003075;28;20064;-61
2021/08/12 09:38:24;;;;;;;9.88;8.95;;;;;;;35.07;25.54;97143.59;5006167;28;20065;-62
2021/08/12 09:40:55;;;;;;;10.93;10.13;;;;;;;35.20;25.82;97163.97;5006453;28;20056;-61
2021/08/12 09:43:28;;;;;;;9.75;8.95;;;;;;;34.15;26.22;97082.94;5005037;28;20060;-63
2021/08/12 09:45:55;;;;;;;9.43;8.63;;;;;;;33.81;27.10;97164.81;5006375;28;20053;-62
2021/08/12 09:48:23;;;;;;;10.45;9.52;;;;;;;33.94;27.48;97162.22;5006809;28;20068;-62
2021/08/12 09:51:06;;;;;;;11.10;10.27;;;;;;;34.03;26.25;97164.81;5006691;28;20064;-61
2021/08/12 09:53:33;;;;;;;10.90;10.00;;;;;;;33.89;25.89;97165.84;5007095;28;20068;-61
2021/08/12 09:56:08;;;;;;;9.85;9.02;;;;;;;34.09;25.96;97159.84;4999051;28;20136;-60
2021/08/12 09:58:35;;;;;;;8.68;8.07;;;;;;;34.22;25.47;97154.34;4991928;28;20055;-62
2021/08/12 10:01:22;;;;;;;12.48;11.38;;;;;;;33.89;25.53;97148.59;4999169;28;20125;-67
2021/08/12 10:03:51;;;;;;;9.50;8.90;;;;;;;34.05;26.15;97159.34;4994175;28;20433;-69
2021/08/12 10:06:20;;;;;;;9.57;8.65;;;;;;;33.78;26.18;97165.84;4990685;28;20177;-67
2021/08/12 10:08:48;;;;;;;10.77;9.90;;;;;;;34.02;25.39;97163.25;4998280;28;20113;-66
2021/08/12 10:11:20;;;;;;;9.48;8.82;;;;;;;34.23;24.81;97158.78;5002821;28;20058;-65
2021/08/12 10:13:53;;;;;;;9.43;8.73;;;;;;;34.22;25.23;97137.06;5005080;28;20542;-65
2021/08/12 10:16:20;;;;;;;;;;;;;;;34.39;25.81;97163.75;5004885;28;20057;-64
2021/08/12 10:18:48;;;;;;;9.75;8.82;;;;;;;34.20;25.97;97142.56;5006588;28;19925;-67
2021/08/12 10:21:19;;;;;;;10.30;9.30;;;;;;;34.30;25.55;97155.38;5004874;28;20057;-64
2021/08/12 10:23:49;;;;;;;10.30;9.60;;;;;;;33.93;26.38;97160.63;5006222;28;20065;-64
2021/08/12 10:26:23;;;;;;;8.60;7.90;;;;;;;33.53;26.75;97162.69;5005670;28;20147;-65
2021/08/12 10:28:55;;;;;;;9.43;8.77;;;;;;;33.98;26.15;97169.28;4997466;28;20050;-67
2021/08/12 10:31:25;;;;;;;9.07;8.48;;;;;;;33.78;25.24;97155.16;4986746;28;20248;-67
2021/08/12 10:33:56;;;;;;;9.82;9.02;;;;;;;33.76;24.99;97157.75;4986975;28;20108;-64
2021/08/12 10:36:23;;;;;;;10.05;9.10;;;;;;;33.28;25.37;97122.69;4986316;28;20332;-65
2021/08/12 10:38:52;;;;;;;10.90;9.82;;;;;;;33.56;25.76;97103.41;4995964;28;20061;-65
2021/08/12 10:41:19;;;;;;;9.85;9.02;;;;;;;34.28;24.78;97157.97;4997027;28;20056;-64
2021/08/12 10:43:52;;;;;;;10.05;9.20;;;;;;;34.36;24.95;97176.28;4991965;28;20060;-65
2021/08/12 10:46:39;;;;;;;9.52;8.82;;;;;;;34.72;24.92;97129.88;4991568;28;20072;-67
2021/08/12 10:49:27;;;;;;;9.38;8.57;;;;;;;35.25;23.50;97148.75;4990029;28;20054;-73
2021/08/12 10:52:00;;;;;;;9.60;8.85;;;;;;;34.07;23.37;97067.53;5005652;28;20108;-65
2021/08/12 10:54:27;;;;;;;10.07;9.35;;;;;;;34.89;23.56;97144.22;5003330;28;20139;-66
2021/08/12 10:57:12;;;;;;;9.07;8.48;;;;;;;35.43;23.40;97145.25;5003823;28;20444;-61
2021/08/12 10:59:41;;;;;;;12.73;11.48;;;;;;;34.95;24.06;97142.88;4993491;28;20145;-65
2021/08/12 11:02:30;;;;;;;9.85;9.15;;;;;;;34.89;23.58;97144.22;4985622;28;20066;-73
2021/08/12 11:04:59;;;;;;;9.85;9.25;;;;;;;34.49;23.44;97093.09;4993083;28;20058;-70
2021/08/12 11:07:38;;;;;;;9.23;8.63;;;;;;;34.83;23.81;97140.56;4993247;28;20050;-66
2021/08/12 11:10:06;;;;;;;9.30;8.68;;;;;;;34.88;23.51;97136.91;5000332;28;20093;-66
2021/08/12 11:12:53;;;;;;;9.48;8.77;;;;;;;35.26;23.25;97133.00;4991798;28;20066;-65
2021/08/12 11:15:53;;;;;;;9.50;8.90;;;;;;;35.75;22.66;97134.78;5003477;28;20045;-65
2021/08/12 11:18:56;;;;;;;8.65;8.02;;;;;;;34.30;20.85;96942.47;4990212;28;20144;-63
2021/08/12 11:21:40;;;;;;;9.55;8.95;;;;;;;35.02;21.54;97101.22;4985340;28;20058;-64
2021/08/12 11:24:10;;;;;;;8.90;8.15;;;;;;;35.17;21.35;97067.09;5004620;28;20124;-64
2021/08/12 11:26:44;;;;;;;9.27;8.65;;;;;;;35.70;21.80;97124.06;4990832;28;20050;-64
2021/08/12 11:29:23;;;;;;;9.35;8.75;;;;;;;35.88;21.06;97132.09;5005215;28;20084;-70
2021/08/12 11:31:49;;;;;;;9.95;9.15;;;;;;;35.76;21.44;97139.22;4995519;28;20050;-69